This is the latest recevied weather packets stored in our database for station/object N5SOR-1. If no packets are shown the sender has not sent any weather packets the latest 10 day(s).
| Time | Temp. | Humidity | Pressure | Rain* | Wind** | Luminosity | Snow |
|---|---|---|---|---|---|---|---|
| 1777830865 | 20.56° C | 47% | 1021.1 hPa | 0 mm | - | 364 W/m² | - |
| 1777830204 | 21.11° C | 43% | 1021.7 hPa | 0 mm | - | 830 W/m² | - |
| 1777829544 | 20.56° C | 45% | 1022 hPa | 0 mm | - | 86 W/m² | - |
| 1777828883 | 20° C | 46% | 1022 hPa | 0 mm | - | 229 W/m² | - |
| 1777828223 | 20° C | 48% | 1022.3 hPa | 0 mm | - | 522 W/m² | - |
| 1777827562 | 20° C | 48% | 1022.3 hPa | 0 mm | - | 88 W/m² | - |
| 1777826901 | 19.44° C | 49% | 1022.7 hPa | 0 mm | - | 84 W/m² | - |
| 1777826241 | 18.89° C | 50% | 1022.8 hPa | 0 mm | - | 102 W/m² | - |
| 1777825580 | 18.89° C | 50% | 1022.8 hPa | 0 mm | - | 209 W/m² | - |
| 1777824920 | 18.33° C | 50% | 1022.8 hPa | 0 mm | - | 60 W/m² | - |
| 1777824259 | 18.33° C | 51% | 1023 hPa | 0 mm | - | 176 W/m² | - |
| 1777823598 | 17.78° C | 52% | 1023.1 hPa | 0 mm | - | 77 W/m² | - |
| 1777822938 | 17.22° C | 51% | 1022.9 hPa | 0 mm | - | 53 W/m² | - |
| 1777822277 | 17.22° C | 52% | 1022.8 hPa | 0 mm | - | 44 W/m² | - |
| 1777821616 | 16.67° C | 54% | 1023.1 hPa | 0 mm | - | 232 W/m² | - |
| 1777820956 | 16.67° C | 53% | 1023.1 hPa | 0 mm | - | 411 W/m² | - |
| 1777820295 | 16.67° C | 54% | 1023.3 hPa | 0 mm | - | 355 W/m² | - |
| 1777819635 | 16.11° C | 54% | 1023.2 hPa | 0 mm | - | 72 W/m² | - |
| 1777818974 | 16.11° C | 55% | 1023.1 hPa | 0 mm | - | 69 W/m² | - |
| 1777818313 | 16.11° C | 55% | 1023 hPa | 0 mm | - | 65 W/m² | - |
| 1777817653 | 15.56° C | 56% | 1023 hPa | 0 mm | - | 53 W/m² | - |
| 1777816992 | 15.56° C | 56% | 1023.1 hPa | 0 mm | - | 155 W/m² | - |
| 1777816332 | 15° C | 59% | 1022.9 hPa | 0 mm | - | 116 W/m² | - |
| 1777815671 | 15° C | 58% | 1022.8 hPa | 0 mm | - | 42 W/m² | - |
| 1777815010 | 14.44° C | 61% | 1022.7 hPa | 0 mm | - | 30 W/m² | - |
* Rain latest hour (hover to see other rain measurements)
** Current wind speed in m/s (hover to see current wind gust speed)